sensor_id;sensor_type;location;lat;lon;timestamp;temperature;humidity
5457;DHT22;2751;49.802;9.944;2022-08-11T00:01:04;20.10;99.90
5457;DHT22;2751;49.802;9.944;2022-08-11T00:03:32;20.00;99.90
5457;DHT22;2751;49.802;9.944;2022-08-11T00:06:00;20.00;99.90
5457;DHT22;2751;49.802;9.944;2022-08-11T00:08:30;19.90;99.90
5457;DHT22;2751;49.802;9.944;2022-08-11T00:11:00;19.90;99.90
5457;DHT22;2751;49.802;9.944;2022-08-11T00:13:32;19.90;99.90
5457;DHT22;2751;49.802;9.944;2022-08-11T00:16:00;19.90;99.90
5457;DHT22;2751;49.802;9.944;2022-08-11T00:18:29;19.80;99.90
5457;DHT22;2751;49.802;9.944;2022-08-11T00:21:05;19.70;99.90
5457;DHT22;2751;49.802;9.944;2022-08-11T00:23:40;19.70;99.90
5457;DHT22;2751;49.802;9.944;2022-08-11T00:26:07;19.70;99.90
5457;DHT22;2751;49.802;9.944;2022-08-11T00:28:35;19.60;99.90
5457;DHT22;2751;49.802;9.944;2022-08-11T00:31:07;19.60;99.90
5457;DHT22;2751;49.802;9.944;2022-08-11T00:33:38;19.50;99.90
5457;DHT22;2751;49.802;9.944;2022-08-11T00:36:07;19.50;99.90
5457;DHT22;2751;49.802;9.944;2022-08-11T00:38:38;19.40;99.90
5457;DHT22;2751;49.802;9.944;2022-08-11T00:41:15;19.30;99.90
5457;DHT22;2751;49.802;9.944;2022-08-11T00:43:56;19.30;99.90
5457;DHT22;2751;49.802;9.944;2022-08-11T00:46:36;19.30;99.90
5457;DHT22;2751;49.802;9.944;2022-08-11T00:49:12;19.30;99.90
5457;DHT22;2751;49.802;9.944;2022-08-11T00:51:58;19.20;99.90
5457;DHT22;2751;49.802;9.944;2022-08-11T01:00:57;19.20;99.90
5457;DHT22;2751;49.802;9.944;2022-08-11T01:03:46;19.10;99.90
5457;DHT22;2751;49.802;9.944;2022-08-11T01:06:45;19.10;99.90
5457;DHT22;2751;49.802;9.944;2022-08-11T01:09:39;19.00;99.90
5457;DHT22;2751;49.802;9.944;2022-08-11T01:12:23;19.10;99.90
5457;DHT22;2751;49.802;9.944;2022-08-11T01:15:23;19.00;99.90
5457;DHT22;2751;49.802;9.944;2022-08-11T01:18:26;19.00;99.90
5457;DHT22;2751;49.802;9.944;2022-08-11T01:21:14;19.00;99.90
5457;DHT22;2751;49.802;9.944;2022-08-11T01:27:20;18.90;99.90
5457;DHT22;2751;49.802;9.944;2022-08-11T01:36:20;18.70;99.90
5457;DHT22;2751;49.802;9.944;2022-08-11T01:42:36;18.60;99.90
5457;DHT22;2751;49.802;9.944;2022-08-11T01:45:35;18.60;99.90
5457;DHT22;2751;49.802;9.944;2022-08-11T01:48:10;18.50;99.90
5457;DHT22;2751;49.802;9.944;2022-08-11T01:50:56;18.50;99.90
5457;DHT22;2751;49.802;9.944;2022-08-11T01:53:33;18.50;99.90
5457;DHT22;2751;49.802;9.944;2022-08-11T01:56:13;18.50;99.90
5457;DHT22;2751;49.802;9.944;2022-08-11T01:58:47;18.40;99.90
5457;DHT22;2751;49.802;9.944;2022-08-11T02:01:36;18.40;99.90
5457;DHT22;2751;49.802;9.944;2022-08-11T02:04:16;18.30;99.90
5457;DHT22;2751;49.802;9.944;2022-08-11T02:06:52;18.30;99.90
5457;DHT22;2751;49.802;9.944;2022-08-11T02:09:32;18.30;99.90
5457;DHT22;2751;49.802;9.944;2022-08-11T02:12:14;18.20;99.90
5457;DHT22;2751;49.802;9.944;2022-08-11T02:14:47;18.20;99.90
5457;DHT22;2751;49.802;9.944;2022-08-11T02:17:39;18.20;99.90
5457;DHT22;2751;49.802;9.944;2022-08-11T02:20:17;18.10;99.90
5457;DHT22;2751;49.802;9.944;2022-08-11T02:23:16;18.10;99.90
5457;DHT22;2751;49.802;9.944;2022-08-11T02:26:08;18.00;99.90
5457;DHT22;2751;49.802;9.944;2022-08-11T02:28:48;18.00;99.90
5457;DHT22;2751;49.802;9.944;2022-08-11T02:31:22;17.90;99.90
5457;DHT22;2751;49.802;9.944;2022-08-11T02:34:14;17.90;99.90
5457;DHT22;2751;49.802;9.944;2022-08-11T02:36:51;17.90;99.90
5457;DHT22;2751;49.802;9.944;2022-08-11T02:39:22;17.90;99.90
5457;DHT22;2751;49.802;9.944;2022-08-11T02:42:05;17.90;99.90
5457;DHT22;2751;49.802;9.944;2022-08-11T02:45:10;17.90;99.90
5457;DHT22;2751;49.802;9.944;2022-08-11T02:47:45;17.80;99.90
5457;DHT22;2751;49.802;9.944;2022-08-11T02:50:37;17.80;99.90
5457;DHT22;2751;49.802;9.944;2022-08-11T02:53:10;17.70;99.90
5457;DHT22;2751;49.802;9.944;2022-08-11T02:55:46;17.70;99.90
5457;DHT22;2751;49.802;9.944;2022-08-11T02:58:30;17.70;99.90
5457;DHT22;2751;49.802;9.944;2022-08-11T03:01:07;17.60;99.90
5457;DHT22;2751;49.802;9.944;2022-08-11T03:03:47;17.60;99.90
5457;DHT22;2751;49.802;9.944;2022-08-11T03:06:26;17.60;99.90
5457;DHT22;2751;49.802;9.944;2022-08-11T03:09:02;17.50;99.90
5457;DHT22;2751;49.802;9.944;2022-08-11T03:11:51;17.50;99.90
5457;DHT22;2751;49.802;9.944;2022-08-11T03:14:45;17.50;99.90
5457;DHT22;2751;49.802;9.944;2022-08-11T03:17:46;17.50;99.90
5457;DHT22;2751;49.802;9.944;2022-08-11T03:20:30;17.50;99.90
5457;DHT22;2751;49.802;9.944;2022-08-11T03:23:02;17.40;99.90
5457;DHT22;2751;49.802;9.944;2022-08-11T03:25:37;17.40;99.90
5457;DHT22;2751;49.802;9.944;2022-08-11T03:28:21;17.40;99.90
5457;DHT22;2751;49.802;9.944;2022-08-11T03:31:00;17.30;99.90
5457;DHT22;2751;49.802;9.944;2022-08-11T03:33:29;17.30;99.90
5457;DHT22;2751;49.802;9.944;2022-08-11T03:36:40;17.30;99.90
5457;DHT22;2751;49.802;9.944;2022-08-11T03:39:19;17.30;99.90
5457;DHT22;2751;49.802;9.944;2022-08-11T03:41:52;17.20;99.90
5457;DHT22;2751;49.802;9.944;2022-08-11T03:44:33;17.20;99.90
5457;DHT22;2751;49.802;9.944;2022-08-11T03:47:21;17.20;99.90
5457;DHT22;2751;49.802;9.944;2022-08-11T03:50:02;17.10;99.90
5457;DHT22;2751;49.802;9.944;2022-08-11T03:52:47;17.10;99.90
5457;DHT22;2751;49.802;9.944;2022-08-11T03:55:26;17.10;99.90
5457;DHT22;2751;49.802;9.944;2022-08-11T03:58:30;17.00;99.90
5457;DHT22;2751;49.802;9.944;2022-08-11T04:16:31;16.80;99.90
5457;DHT22;2751;49.802;9.944;2022-08-11T04:19:28;16.80;99.90
5457;DHT22;2751;49.802;9.944;2022-08-11T04:22:27;16.80;99.90
5457;DHT22;2751;49.802;9.944;2022-08-11T04:25:23;16.90;99.90
5457;DHT22;2751;49.802;9.944;2022-08-11T04:28:21;16.90;99.90
5457;DHT22;2751;49.802;9.944;2022-08-11T04:31:01;16.80;99.90
5457;DHT22;2751;49.802;9.944;2022-08-11T04:33:57;16.90;99.90
5457;DHT22;2751;49.802;9.944;2022-08-11T04:36:40;16.90;99.90
5457;DHT22;2751;49.802;9.944;2022-08-11T04:39:42;16.90;99.90
5457;DHT22;2751;49.802;9.944;2022-08-11T04:48:44;16.90;99.90
5457;DHT22;2751;49.802;9.944;2022-08-11T04:55:18;16.90;99.90
5457;DHT22;2751;49.802;9.944;2022-08-11T04:58:11;16.90;99.90
5457;DHT22;2751;49.802;9.944;2022-08-11T05:01:11;17.00;99.90
5457;DHT22;2751;49.802;9.944;2022-08-11T05:04:28;17.00;99.90
5457;DHT22;2751;49.802;9.944;2022-08-11T05:10:26;17.00;99.90
5457;DHT22;2751;49.802;9.944;2022-08-11T05:13:00;17.00;99.90
5457;DHT22;2751;49.802;9.944;2022-08-11T05:15:51;17.10;99.90
5457;DHT22;2751;49.802;9.944;2022-08-11T05:18:44;17.10;99.90
5457;DHT22;2751;49.802;9.944;2022-08-11T05:21:32;17.10;99.90
5457;DHT22;2751;49.802;9.944;2022-08-11T05:24:21;17.20;99.90
5457;DHT22;2751;49.802;9.944;2022-08-11T05:27:08;17.20;99.90
5457;DHT22;2751;49.802;9.944;2022-08-11T05:29:59;17.20;99.90
5457;DHT22;2751;49.802;9.944;2022-08-11T05:32:46;17.30;99.90
5457;DHT22;2751;49.802;9.944;2022-08-11T05:35:40;17.40;99.90
5457;DHT22;2751;49.802;9.944;2022-08-11T05:38:14;17.50;99.90
5457;DHT22;2751;49.802;9.944;2022-08-11T05:41:00;17.50;99.90
5457;DHT22;2751;49.802;9.944;2022-08-11T05:43:45;17.60;99.90
5457;DHT22;2751;49.802;9.944;2022-08-11T05:46:38;17.70;99.90
5457;DHT22;2751;49.802;9.944;2022-08-11T05:49:24;17.90;99.90
5457;DHT22;2751;49.802;9.944;2022-08-11T05:52:14;18.00;99.90
5457;DHT22;2751;49.802;9.944;2022-08-11T05:55:03;18.00;99.90
5457;DHT22;2751;49.802;9.944;2022-08-11T05:57:53;18.20;99.90
5457;DHT22;2751;49.802;9.944;2022-08-11T06:00:20;18.30;99.90
5457;DHT22;2751;49.802;9.944;2022-08-11T06:02:51;18.40;99.90
5457;DHT22;2751;49.802;9.944;2022-08-11T06:05:20;18.50;99.90
5457;DHT22;2751;49.802;9.944;2022-08-11T06:07:48;18.60;99.90
5457;DHT22;2751;49.802;9.944;2022-08-11T06:10:27;18.70;99.90
5457;DHT22;2751;49.802;9.944;2022-08-11T06:12:56;18.80;99.90
5457;DHT22;2751;49.802;9.944;2022-08-11T06:15:26;18.90;99.90
5457;DHT22;2751;49.802;9.944;2022-08-11T06:17:54;19.00;99.90
5457;DHT22;2751;49.802;9.944;2022-08-11T06:20:21;19.10;99.90
5457;DHT22;2751;49.802;9.944;2022-08-11T06:22:56;19.20;99.90
5457;DHT22;2751;49.802;9.944;2022-08-11T06:25:30;19.40;99.90
5457;DHT22;2751;49.802;9.944;2022-08-11T06:28:02;19.50;99.90
5457;DHT22;2751;49.802;9.944;2022-08-11T06:30:34;19.70;99.90
5457;DHT22;2751;49.802;9.944;2022-08-11T06:33:07;19.80;99.90
5457;DHT22;2751;49.802;9.944;2022-08-11T06:35:43;20.10;99.90
5457;DHT22;2751;49.802;9.944;2022-08-11T06:38:18;20.30;99.90
5457;DHT22;2751;49.802;9.944;2022-08-11T06:40:54;20.50;99.90
5457;DHT22;2751;49.802;9.944;2022-08-11T06:43:48;20.80;99.90
5457;DHT22;2751;49.802;9.944;2022-08-11T06:46:24;20.90;99.90
5457;DHT22;2751;49.802;9.944;2022-08-11T06:48:53;21.20;99.90
5457;DHT22;2751;49.802;9.944;2022-08-11T06:51:21;21.30;99.90
5457;DHT22;2751;49.802;9.944;2022-08-11T06:53:50;21.40;99.90
5457;DHT22;2751;49.802;9.944;2022-08-11T06:56:24;21.60;99.90
5457;DHT22;2751;49.802;9.944;2022-08-11T06:59:10;21.70;99.90
5457;DHT22;2751;49.802;9.944;2022-08-11T07:02:02;21.90;99.90
5457;DHT22;2751;49.802;9.944;2022-08-11T07:04:39;22.10;99.90
5457;DHT22;2751;49.802;9.944;2022-08-11T07:07:33;22.30;99.90
5457;DHT22;2751;49.802;9.944;2022-08-11T07:10:32;22.60;99.90
5457;DHT22;2751;49.802;9.944;2022-08-11T07:13:23;22.70;99.90
5457;DHT22;2751;49.802;9.944;2022-08-11T07:16:10;22.70;99.90
5457;DHT22;2751;49.802;9.944;2022-08-11T07:18:41;23.00;99.90
5457;DHT22;2751;49.802;9.944;2022-08-11T07:21:29;23.00;99.90
5457;DHT22;2751;49.802;9.944;2022-08-11T07:24:16;23.00;99.90
5457;DHT22;2751;49.802;9.944;2022-08-11T07:27:05;23.10;99.90
5457;DHT22;2751;49.802;9.944;2022-08-11T07:29:54;23.10;99.90
5457;DHT22;2751;49.802;9.944;2022-08-11T07:32:27;23.20;99.90
5457;DHT22;2751;49.802;9.944;2022-08-11T07:34:58;23.30;99.90
5457;DHT22;2751;49.802;9.944;2022-08-11T07:37:30;23.40;99.90
5457;DHT22;2751;49.802;9.944;2022-08-11T07:39:59;23.50;99.90
5457;DHT22;2751;49.802;9.944;2022-08-11T07:42:30;23.70;99.90
5457;DHT22;2751;49.802;9.944;2022-08-11T07:45:04;23.80;99.90
5457;DHT22;2751;49.802;9.944;2022-08-11T07:47:51;24.00;99.90
5457;DHT22;2751;49.802;9.944;2022-08-11T07:50:40;24.10;99.90
5457;DHT22;2751;49.802;9.944;2022-08-11T07:53:25;24.20;99.90
5457;DHT22;2751;49.802;9.944;2022-08-11T07:55:54;24.30;99.90
5457;DHT22;2751;49.802;9.944;2022-08-11T07:58:22;24.40;99.90
5457;DHT22;2751;49.802;9.944;2022-08-11T08:01:10;24.60;99.90
5457;DHT22;2751;49.802;9.944;2022-08-11T08:03:58;24.80;99.90
5457;DHT22;2751;49.802;9.944;2022-08-11T08:06:43;24.90;99.90
5457;DHT22;2751;49.802;9.944;2022-08-11T08:09:32;25.10;99.90
5457;DHT22;2751;49.802;9.944;2022-08-11T08:12:20;25.60;99.90
5457;DHT22;2751;49.802;9.944;2022-08-11T08:15:06;26.30;99.90
5457;DHT22;2751;49.802;9.944;2022-08-11T08:17:54;26.80;99.90
5457;DHT22;2751;49.802;9.944;2022-08-11T08:20:25;27.30;99.90
5457;DHT22;2751;49.802;9.944;2022-08-11T08:22:54;27.80;99.90
5457;DHT22;2751;49.802;9.944;2022-08-11T08:25:23;28.40;99.90
5457;DHT22;2751;49.802;9.944;2022-08-11T08:27:51;28.80;99.90
5457;DHT22;2751;49.802;9.944;2022-08-11T08:30:19;29.40;99.90
5457;DHT22;2751;49.802;9.944;2022-08-11T08:33:05;29.90;99.90
5457;DHT22;2751;49.802;9.944;2022-08-11T08:35:34;30.30;99.90
5457;DHT22;2751;49.802;9.944;2022-08-11T08:38:02;30.90;99.90
5457;DHT22;2751;49.802;9.944;2022-08-11T08:40:29;30.90;99.90
5457;DHT22;2751;49.802;9.944;2022-08-11T08:42:58;31.10;99.90
5457;DHT22;2751;49.802;9.944;2022-08-11T08:45:28;31.50;99.90
5457;DHT22;2751;49.802;9.944;2022-08-11T08:47:58;31.60;99.90
5457;DHT22;2751;49.802;9.944;2022-08-11T08:50:31;32.10;99.90
5457;DHT22;2751;49.802;9.944;2022-08-11T08:53:13;32.70;99.90
5457;DHT22;2751;49.802;9.944;2022-08-11T08:55:42;32.80;99.90
5457;DHT22;2751;49.802;9.944;2022-08-11T08:58:12;33.40;99.90
5457;DHT22;2751;49.802;9.944;2022-08-11T09:00:43;33.30;99.90
5457;DHT22;2751;49.802;9.944;2022-08-11T09:03:11;33.90;99.90
5457;DHT22;2751;49.802;9.944;2022-08-11T09:05:40;34.00;99.90
5457;DHT22;2751;49.802;9.944;2022-08-11T09:08:08;34.30;99.90
5457;DHT22;2751;49.802;9.944;2022-08-11T09:10:37;34.30;99.90
5457;DHT22;2751;49.802;9.944;2022-08-11T09:13:05;34.00;99.90
5457;DHT22;2751;49.802;9.944;2022-08-11T09:15:34;34.00;99.90
5457;DHT22;2751;49.802;9.944;2022-08-11T09:18:03;34.90;99.90
5457;DHT22;2751;49.802;9.944;2022-08-11T09:20:35;34.40;99.90
5457;DHT22;2751;49.802;9.944;2022-08-11T09:23:05;34.80;99.90
5457;DHT22;2751;49.802;9.944;2022-08-11T09:25:52;34.00;99.90
5457;DHT22;2751;49.802;9.944;2022-08-11T09:28:38;34.00;99.90
5457;DHT22;2751;49.802;9.944;2022-08-11T09:31:07;34.70;99.90
5457;DHT22;2751;49.802;9.944;2022-08-11T09:33:35;34.60;99.90
5457;DHT22;2751;49.802;9.944;2022-08-11T09:36:04;34.70;99.90
5457;DHT22;2751;49.802;9.944;2022-08-11T09:39:05;34.90;99.90
5457;DHT22;2751;49.802;9.944;2022-08-11T09:41:50;35.50;99.90
5457;DHT22;2751;49.802;9.944;2022-08-11T09:44:18;34.90;99.90
5457;DHT22;2751;49.802;9.944;2022-08-11T09:47:03;35.70;99.90
5457;DHT22;2751;49.802;9.944;2022-08-11T09:49:41;36.30;99.90
5457;DHT22;2751;49.802;9.944;2022-08-11T09:52:09;36.50;99.90
5457;DHT22;2751;49.802;9.944;2022-08-11T09:54:39;36.50;99.90
5457;DHT22;2751;49.802;9.944;2022-08-11T09:57:07;37.10;99.90
5457;DHT22;2751;49.802;9.944;2022-08-11T09:59:52;36.80;99.90
5457;DHT22;2751;49.802;9.944;2022-08-11T10:02:24;36.70;99.90
5457;DHT22;2751;49.802;9.944;2022-08-11T10:04:54;36.60;99.90
5457;DHT22;2751;49.802;9.944;2022-08-11T10:07:43;37.30;99.90
5457;DHT22;2751;49.802;9.944;2022-08-11T10:10:18;37.50;99.90
5457;DHT22;2751;49.802;9.944;2022-08-11T10:12:49;37.00;99.90
5457;DHT22;2751;49.802;9.944;2022-08-11T10:15:18;36.60;99.90
5457;DHT22;2751;49.802;9.944;2022-08-11T10:18:04;36.90;99.90
5457;DHT22;2751;49.802;9.944;2022-08-11T10:20:51;37.40;99.90
5457;DHT22;2751;49.802;9.944;2022-08-11T10:23:20;38.00;99.90
5457;DHT22;2751;49.802;9.944;2022-08-11T10:26:07;38.20;99.90
5457;DHT22;2751;49.802;9.944;2022-08-11T10:28:52;37.50;99.90
5457;DHT22;2751;49.802;9.944;2022-08-11T10:31:20;38.10;99.90
5457;DHT22;2751;49.802;9.944;2022-08-11T10:34:06;38.50;99.90
5457;DHT22;2751;49.802;9.944;2022-08-11T10:36:36;37.70;99.90
5457;DHT22;2751;49.802;9.944;2022-08-11T10:39:09;38.00;99.90
5457;DHT22;2751;49.802;9.944;2022-08-11T10:41:38;38.90;99.90
5457;DHT22;2751;49.802;9.944;2022-08-11T10:44:23;39.30;99.90
5457;DHT22;2751;49.802;9.944;2022-08-11T10:46:51;38.20;99.90
5457;DHT22;2751;49.802;9.944;2022-08-11T10:49:36;38.70;99.90
5457;DHT22;2751;49.802;9.944;2022-08-11T10:52:03;37.80;99.90
5457;DHT22;2751;49.802;9.944;2022-08-11T10:54:48;37.00;99.90
5457;DHT22;2751;49.802;9.944;2022-08-11T10:57:35;37.50;99.90
5457;DHT22;2751;49.802;9.944;2022-08-11T11:00:19;38.20;99.90
5457;DHT22;2751;49.802;9.944;2022-08-11T11:02:50;39.00;99.90
5457;DHT22;2751;49.802;9.944;2022-08-11T11:05:23;40.10;99.90
5457;DHT22;2751;49.802;9.944;2022-08-11T11:07:55;40.90;99.90
5457;DHT22;2751;49.802;9.944;2022-08-11T11:10:25;40.10;99.90
5457;DHT22;2751;49.802;9.944;2022-08-11T11:12:56;41.10;99.90
5457;DHT22;2751;49.802;9.944;2022-08-11T11:15:44;40.30;99.90
5457;DHT22;2751;49.802;9.944;2022-08-11T11:18:33;40.60;99.90
5457;DHT22;2751;49.802;9.944;2022-08-11T11:21:05;40.40;99.90
5457;DHT22;2751;49.802;9.944;2022-08-11T11:23:37;41.60;99.90
5457;DHT22;2751;49.802;9.944;2022-08-11T11:26:26;41.70;99.90
5457;DHT22;2751;49.802;9.944;2022-08-11T11:32:06;41.80;99.90
5457;DHT22;2751;49.802;9.944;2022-08-11T11:34:50;43.60;99.90
5457;DHT22;2751;49.802;9.944;2022-08-11T11:37:24;43.70;99.90
5457;DHT22;2751;49.802;9.944;2022-08-11T11:39:53;42.00;99.90
5457;DHT22;2751;49.802;9.944;2022-08-11T11:42:22;41.80;99.90
5457;DHT22;2751;49.802;9.944;2022-08-11T11:44:51;41.40;99.90
5457;DHT22;2751;49.802;9.944;2022-08-11T11:47:18;42.40;99.90
5457;DHT22;2751;49.802;9.944;2022-08-11T11:49:47;41.90;99.90
5457;DHT22;2751;49.802;9.944;2022-08-11T11:52:17;41.90;99.90
5457;DHT22;2751;49.802;9.944;2022-08-11T11:54:45;42.80;99.90
5457;DHT22;2751;49.802;9.944;2022-08-11T11:57:16;43.80;99.90
5457;DHT22;2751;49.802;9.944;2022-08-11T12:00:03;44.10;99.90
5457;DHT22;2751;49.802;9.944;2022-08-11T12:02:49;44.40;99.90
5457;DHT22;2751;49.802;9.944;2022-08-11T12:05:16;43.50;99.90
5457;DHT22;2751;49.802;9.944;2022-08-11T12:07:44;43.40;99.90
5457;DHT22;2751;49.802;9.944;2022-08-11T12:10:29;44.60;99.90
5457;DHT22;2751;49.802;9.944;2022-08-11T12:12:58;45.10;99.90
5457;DHT22;2751;49.802;9.944;2022-08-11T12:15:46;43.80;99.90
5457;DHT22;2751;49.802;9.944;2022-08-11T12:18:15;42.80;99.90
5457;DHT22;2751;49.802;9.944;2022-08-11T12:20:42;42.90;99.90
5457;DHT22;2751;49.802;9.944;2022-08-11T12:23:10;43.00;99.90
5457;DHT22;2751;49.802;9.944;2022-08-11T12:25:55;42.30;99.90
5457;DHT22;2751;49.802;9.944;2022-08-11T12:28:39;43.30;99.90
5457;DHT22;2751;49.802;9.944;2022-08-11T12:31:08;43.30;99.90
5457;DHT22;2751;49.802;9.944;2022-08-11T12:33:35;43.90;99.90
5457;DHT22;2751;49.802;9.944;2022-08-11T12:36:03;44.10;99.90
5457;DHT22;2751;49.802;9.944;2022-08-11T12:38:32;44.30;99.90
5457;DHT22;2751;49.802;9.944;2022-08-11T12:41:00;44.00;99.90
5457;DHT22;2751;49.802;9.944;2022-08-11T12:43:46;44.00;99.90
5457;DHT22;2751;49.802;9.944;2022-08-11T12:46:34;44.00;99.90
5457;DHT22;2751;49.802;9.944;2022-08-11T12:49:07;43.90;99.90
5457;DHT22;2751;49.802;9.944;2022-08-11T12:51:54;44.30;99.90
5457;DHT22;2751;49.802;9.944;2022-08-11T12:54:27;44.00;99.90
5457;DHT22;2751;49.802;9.944;2022-08-11T12:56:59;42.70;99.90
5457;DHT22;2751;49.802;9.944;2022-08-11T12:59:44;41.00;99.90
5457;DHT22;2751;49.802;9.944;2022-08-11T13:02:30;40.40;99.90
5457;DHT22;2751;49.802;9.944;2022-08-11T13:05:16;41.50;99.90
5457;DHT22;2751;49.802;9.944;2022-08-11T13:07:44;42.20;99.90
5457;DHT22;2751;49.802;9.944;2022-08-11T13:10:14;42.70;99.90
5457;DHT22;2751;49.802;9.944;2022-08-11T13:13:02;42.30;99.90
5457;DHT22;2751;49.802;9.944;2022-08-11T13:15:29;42.20;99.90
5457;DHT22;2751;49.802;9.944;2022-08-11T13:17:58;43.00;99.90
5457;DHT22;2751;49.802;9.944;2022-08-11T13:20:26;43.40;99.90
5457;DHT22;2751;49.802;9.944;2022-08-11T13:22:55;43.50;99.90
5457;DHT22;2751;49.802;9.944;2022-08-11T13:25:26;44.20;99.90
5457;DHT22;2751;49.802;9.944;2022-08-11T13:27:57;44.60;99.90
5457;DHT22;2751;49.802;9.944;2022-08-11T13:30:27;44.40;99.90
5457;DHT22;2751;49.802;9.944;2022-08-11T13:33:15;43.20;99.90
5457;DHT22;2751;49.802;9.944;2022-08-11T13:35:43;42.30;99.90
5457;DHT22;2751;49.802;9.944;2022-08-11T13:38:11;42.10;99.90
5457;DHT22;2751;49.802;9.944;2022-08-11T13:40:40;42.60;99.90
5457;DHT22;2751;49.802;9.944;2022-08-11T13:43:07;41.80;99.90
5457;DHT22;2751;49.802;9.944;2022-08-11T13:45:36;41.90;99.90
5457;DHT22;2751;49.802;9.944;2022-08-11T13:48:07;41.50;99.90
5457;DHT22;2751;49.802;9.944;2022-08-11T13:50:36;41.50;99.90
5457;DHT22;2751;49.802;9.944;2022-08-11T13:53:21;40.90;99.90
5457;DHT22;2751;49.802;9.944;2022-08-11T13:55:48;41.30;99.90
5457;DHT22;2751;49.802;9.944;2022-08-11T13:58:16;42.10;99.90
5457;DHT22;2751;49.802;9.944;2022-08-11T14:00:48;42.50;99.90
5457;DHT22;2751;49.802;9.944;2022-08-11T14:03:18;42.00;99.90
5457;DHT22;2751;49.802;9.944;2022-08-11T14:05:48;42.40;99.90
5457;DHT22;2751;49.802;9.944;2022-08-11T14:08:20;42.20;99.90
5457;DHT22;2751;49.802;9.944;2022-08-11T14:10:50;41.60;99.90
5457;DHT22;2751;49.802;9.944;2022-08-11T14:13:39;41.20;99.90
5457;DHT22;2751;49.802;9.944;2022-08-11T14:16:10;42.30;99.90
5457;DHT22;2751;49.802;9.944;2022-08-11T14:18:43;42.30;99.90
5457;DHT22;2751;49.802;9.944;2022-08-11T14:21:15;43.00;99.90
5457;DHT22;2751;49.802;9.944;2022-08-11T14:24:00;43.30;99.90
5457;DHT22;2751;49.802;9.944;2022-08-11T14:26:29;42.70;99.90
5457;DHT22;2751;49.802;9.944;2022-08-11T14:29:06;42.30;99.90
5457;DHT22;2751;49.802;9.944;2022-08-11T14:31:36;42.20;99.90
5457;DHT22;2751;49.802;9.944;2022-08-11T14:34:05;42.40;99.90
5457;DHT22;2751;49.802;9.944;2022-08-11T14:36:38;42.40;99.90
5457;DHT22;2751;49.802;9.944;2022-08-11T14:39:07;42.20;99.90
5457;DHT22;2751;49.802;9.944;2022-08-11T14:41:38;42.70;99.90
5457;DHT22;2751;49.802;9.944;2022-08-11T14:44:24;41.90;99.90
5457;DHT22;2751;49.802;9.944;2022-08-11T14:47:09;42.20;99.90
5457;DHT22;2751;49.802;9.944;2022-08-11T14:49:40;42.20;99.90
5457;DHT22;2751;49.802;9.944;2022-08-11T14:52:11;41.90;99.90
5457;DHT22;2751;49.802;9.944;2022-08-11T14:54:42;42.20;99.90
5457;DHT22;2751;49.802;9.944;2022-08-11T14:57:28;41.30;99.90
5457;DHT22;2751;49.802;9.944;2022-08-11T14:59:59;41.10;99.90
5457;DHT22;2751;49.802;9.944;2022-08-11T15:02:27;41.60;99.90
5457;DHT22;2751;49.802;9.944;2022-08-11T15:05:12;42.30;99.90
5457;DHT22;2751;49.802;9.944;2022-08-11T15:07:41;43.00;99.90
5457;DHT22;2751;49.802;9.944;2022-08-11T15:10:09;42.50;99.90
5457;DHT22;2751;49.802;9.944;2022-08-11T15:12:40;42.70;99.90
5457;DHT22;2751;49.802;9.944;2022-08-11T15:15:08;42.90;99.90
5457;DHT22;2751;49.802;9.944;2022-08-11T15:17:55;42.50;99.90
5457;DHT22;2751;49.802;9.944;2022-08-11T15:20:24;42.70;99.90
5457;DHT22;2751;49.802;9.944;2022-08-11T15:23:11;42.30;99.90
5457;DHT22;2751;49.802;9.944;2022-08-11T15:25:58;42.10;99.90
5457;DHT22;2751;49.802;9.944;2022-08-11T15:28:28;42.20;99.90
5457;DHT22;2751;49.802;9.944;2022-08-11T15:31:14;42.00;99.90
5457;DHT22;2751;49.802;9.944;2022-08-11T15:34:03;43.10;99.90
5457;DHT22;2751;49.802;9.944;2022-08-11T15:36:49;43.90;99.90
5457;DHT22;2751;49.802;9.944;2022-08-11T15:39:46;44.10;99.90
5457;DHT22;2751;49.802;9.944;2022-08-11T15:42:28;43.20;99.90
5457;DHT22;2751;49.802;9.944;2022-08-11T15:45:14;43.20;99.90
5457;DHT22;2751;49.802;9.944;2022-08-11T15:48:06;42.30;99.90
5457;DHT22;2751;49.802;9.944;2022-08-11T15:50:37;41.00;99.90
5457;DHT22;2751;49.802;9.944;2022-08-11T15:53:08;41.40;99.90
5457;DHT22;2751;49.802;9.944;2022-08-11T15:55:38;40.10;99.90
5457;DHT22;2751;49.802;9.944;2022-08-11T15:58:07;40.20;99.90
5457;DHT22;2751;49.802;9.944;2022-08-11T16:00:54;41.50;99.90
5457;DHT22;2751;49.802;9.944;2022-08-11T16:03:44;41.20;99.90
5457;DHT22;2751;49.802;9.944;2022-08-11T16:06:33;41.30;99.90
5457;DHT22;2751;49.802;9.944;2022-08-11T16:09:02;41.60;99.90
5457;DHT22;2751;49.802;9.944;2022-08-11T16:11:33;41.80;99.90
5457;DHT22;2751;49.802;9.944;2022-08-11T16:14:02;41.80;99.90
5457;DHT22;2751;49.802;9.944;2022-08-11T16:16:48;42.30;99.90
5457;DHT22;2751;49.802;9.944;2022-08-11T16:19:18;42.00;99.90
5457;DHT22;2751;49.802;9.944;2022-08-11T16:21:46;40.60;99.90
5457;DHT22;2751;49.802;9.944;2022-08-11T16:24:18;40.00;99.90
5457;DHT22;2751;49.802;9.944;2022-08-11T16:26:47;39.50;99.90
5457;DHT22;2751;49.802;9.944;2022-08-11T16:29:16;38.70;99.90
5457;DHT22;2751;49.802;9.944;2022-08-11T16:31:44;39.50;99.90
5457;DHT22;2751;49.802;9.944;2022-08-11T16:34:32;39.20;99.90
5457;DHT22;2751;49.802;9.944;2022-08-11T16:37:18;38.90;99.90
5457;DHT22;2751;49.802;9.944;2022-08-11T16:40:05;39.50;99.90
5457;DHT22;2751;49.802;9.944;2022-08-11T16:42:35;39.10;99.90
5457;DHT22;2751;49.802;9.944;2022-08-11T16:45:20;37.80;99.90
5457;DHT22;2751;49.802;9.944;2022-08-11T16:48:06;36.50;99.90
5457;DHT22;2751;49.802;9.944;2022-08-11T16:50:35;35.00;99.90
5457;DHT22;2751;49.802;9.944;2022-08-11T16:53:03;34.00;99.90
5457;DHT22;2751;49.802;9.944;2022-08-11T16:55:30;33.10;99.90
5457;DHT22;2751;49.802;9.944;2022-08-11T16:58:01;32.60;99.90
5457;DHT22;2751;49.802;9.944;2022-08-11T17:00:47;32.10;99.90
5457;DHT22;2751;49.802;9.944;2022-08-11T17:03:16;32.10;99.90
5457;DHT22;2751;49.802;9.944;2022-08-11T17:06:02;32.70;99.90
5457;DHT22;2751;49.802;9.944;2022-08-11T17:08:50;33.00;99.90
5457;DHT22;2751;49.802;9.944;2022-08-11T17:11:39;33.30;99.90
5457;DHT22;2751;49.802;9.944;2022-08-11T17:14:31;33.80;99.90
5457;DHT22;2751;49.802;9.944;2022-08-11T17:17:02;34.00;99.90
5457;DHT22;2751;49.802;9.944;2022-08-11T17:19:32;34.50;99.90
5457;DHT22;2751;49.802;9.944;2022-08-11T17:22:01;34.70;99.90
5457;DHT22;2751;49.802;9.944;2022-08-11T17:24:47;35.20;99.90
5457;DHT22;2751;49.802;9.944;2022-08-11T17:27:17;35.20;99.90
5457;DHT22;2751;49.802;9.944;2022-08-11T17:29:49;34.90;99.90
5457;DHT22;2751;49.802;9.944;2022-08-11T17:32:20;34.40;99.90
5457;DHT22;2751;49.802;9.944;2022-08-11T17:35:20;34.60;99.90
5457;DHT22;2751;49.802;9.944;2022-08-11T17:38:00;33.90;99.90
5457;DHT22;2751;49.802;9.944;2022-08-11T17:40:30;33.30;99.90
5457;DHT22;2751;49.802;9.944;2022-08-11T17:42:59;33.10;99.90
5457;DHT22;2751;49.802;9.944;2022-08-11T17:45:46;33.20;99.90
5457;DHT22;2751;49.802;9.944;2022-08-11T17:48:34;33.30;99.90
5457;DHT22;2751;49.802;9.944;2022-08-11T17:51:04;33.20;99.90
5457;DHT22;2751;49.802;9.944;2022-08-11T17:53:36;32.70;99.90
5457;DHT22;2751;49.802;9.944;2022-08-11T17:56:30;32.40;99.90
5457;DHT22;2751;49.802;9.944;2022-08-11T17:59:16;31.80;99.90
5457;DHT22;2751;49.802;9.944;2022-08-11T18:02:04;31.40;99.90
5457;DHT22;2751;49.802;9.944;2022-08-11T18:04:49;31.10;99.90